sensor_id;sensor_type;location;lat;lon;timestamp;temperature;humidity
41168;DHT22;26906;45.658;9.272;2023-04-25T05:21:21;14.60;99.90
41168;DHT22;26906;45.658;9.272;2023-04-25T05:24:06;14.80;99.90
41168;DHT22;26906;45.658;9.272;2023-04-25T05:26:51;14.60;99.90
41168;DHT22;26906;45.658;9.272;2023-04-25T05:29:35;14.60;99.90
41168;DHT22;26906;45.658;9.272;2023-04-25T05:32:22;14.70;99.90
41168;DHT22;26906;45.658;9.272;2023-04-25T05:34:50;14.80;99.90
41168;DHT22;26906;45.658;9.272;2023-04-25T05:37:23;15.00;99.90
41168;DHT22;26906;45.658;9.272;2023-04-25T05:39:54;15.10;99.90
41168;DHT22;26906;45.658;9.272;2023-04-25T05:42:46;15.30;99.90
41168;DHT22;26906;45.658;9.272;2023-04-25T05:45:32;15.60;99.90
41168;DHT22;26906;45.658;9.272;2023-04-25T05:48:09;15.60;99.90
41168;DHT22;26906;45.658;9.272;2023-04-25T05:50:57;15.80;99.90
41168;DHT22;26906;45.658;9.272;2023-04-25T05:53:40;16.20;99.90
41168;DHT22;26906;45.658;9.272;2023-04-25T05:56:06;16.50;99.90
41168;DHT22;26906;45.658;9.272;2023-04-25T05:58:32;16.70;99.90
41168;DHT22;26906;45.658;9.272;2023-04-25T06:01:00;17.00;99.90
41168;DHT22;26906;45.658;9.272;2023-04-25T06:03:26;17.20;99.90
41168;DHT22;26906;45.658;9.272;2023-04-25T06:05:52;17.40;99.90
41168;DHT22;26906;45.658;9.272;2023-04-25T06:08:19;17.60;99.90
41168;DHT22;26906;45.658;9.272;2023-04-25T06:10:44;17.70;99.90
41168;DHT22;26906;45.658;9.272;2023-04-25T06:13:10;17.70;99.90
41168;DHT22;26906;45.658;9.272;2023-04-25T06:15:36;17.90;99.90
41168;DHT22;26906;45.658;9.272;2023-04-25T06:18:02;18.00;99.90
41168;DHT22;26906;45.658;9.272;2023-04-25T06:20:28;18.10;99.90
41168;DHT22;26906;45.658;9.272;2023-04-25T06:22:57;18.30;99.90
41168;DHT22;26906;45.658;9.272;2023-04-25T06:25:43;18.30;99.90
41168;DHT22;26906;45.658;9.272;2023-04-25T06:28:08;18.60;99.90
41168;DHT22;26906;45.658;9.272;2023-04-25T06:30:34;18.80;99.90
41168;DHT22;26906;45.658;9.272;2023-04-25T06:33:05;18.90;99.90
41168;DHT22;26906;45.658;9.272;2023-04-25T06:35:31;19.10;99.90
41168;DHT22;26906;45.658;9.272;2023-04-25T06:37:57;19.30;99.90
41168;DHT22;26906;45.658;9.272;2023-04-25T06:40:24;19.30;99.90
41168;DHT22;26906;45.658;9.272;2023-04-25T06:42:50;19.40;99.90
41168;DHT22;26906;45.658;9.272;2023-04-25T06:45:36;19.50;99.90
41168;DHT22;26906;45.658;9.272;2023-04-25T06:48:03;19.60;99.90
41168;DHT22;26906;45.658;9.272;2023-04-25T06:50:28;19.60;99.90
41168;DHT22;26906;45.658;9.272;2023-04-25T06:52:54;19.80;99.90
41168;DHT22;26906;45.658;9.272;2023-04-25T06:55:20;20.00;99.90
41168;DHT22;26906;45.658;9.272;2023-04-25T06:58:03;20.30;99.90
41168;DHT22;26906;45.658;9.272;2023-04-25T07:00:49;20.60;99.90
41168;DHT22;26906;45.658;9.272;2023-04-25T07:03:15;20.60;99.90
41168;DHT22;26906;45.658;9.272;2023-04-25T07:05:41;20.70;99.90
41168;DHT22;26906;45.658;9.272;2023-04-25T07:08:07;20.90;99.90
41168;DHT22;26906;45.658;9.272;2023-04-25T07:10:33;20.90;99.90
41168;DHT22;26906;45.658;9.272;2023-04-25T07:12:59;21.20;99.90
41168;DHT22;26906;45.658;9.272;2023-04-25T07:15:24;21.30;99.90
41168;DHT22;26906;45.658;9.272;2023-04-25T07:17:50;21.50;99.90
41168;DHT22;26906;45.658;9.272;2023-04-25T07:20:17;21.40;99.90
41168;DHT22;26906;45.658;9.272;2023-04-25T07:22:43;21.20;99.90
41168;DHT22;26906;45.658;9.272;2023-04-25T07:25:09;20.80;99.90
41168;DHT22;26906;45.658;9.272;2023-04-25T07:27:35;20.90;99.90
41168;DHT22;26906;45.658;9.272;2023-04-25T07:30:07;21.00;99.90
41168;DHT22;26906;45.658;9.272;2023-04-25T07:32:33;21.10;99.90
41168;DHT22;26906;45.658;9.272;2023-04-25T07:35:00;21.20;99.90
41168;DHT22;26906;45.658;9.272;2023-04-25T07:37:27;21.40;99.90
41168;DHT22;26906;45.658;9.272;2023-04-25T07:40:02;21.70;99.90
41168;DHT22;26906;45.658;9.272;2023-04-25T07:42:30;21.90;99.90
41168;DHT22;26906;45.658;9.272;2023-04-25T07:44:56;22.00;99.90
41168;DHT22;26906;45.658;9.272;2023-04-25T07:47:22;22.20;99.90
41168;DHT22;26906;45.658;9.272;2023-04-25T07:49:47;21.70;99.90
41168;DHT22;26906;45.658;9.272;2023-04-25T07:52:14;21.60;99.90
41168;DHT22;26906;45.658;9.272;2023-04-25T07:54:45;21.80;99.90
41168;DHT22;26906;45.658;9.272;2023-04-25T07:57:16;21.80;99.90
41168;DHT22;26906;45.658;9.272;2023-04-25T07:59:46;21.90;99.90
41168;DHT22;26906;45.658;9.272;2023-04-25T08:02:12;21.40;99.90
41168;DHT22;26906;45.658;9.272;2023-04-25T08:04:39;21.10;99.90
41168;DHT22;26906;45.658;9.272;2023-04-25T08:07:09;21.00;99.90
41168;DHT22;26906;45.658;9.272;2023-04-25T08:09:43;20.80;99.90
41168;DHT22;26906;45.658;9.272;2023-04-25T08:12:17;20.70;99.90
41168;DHT22;26906;45.658;9.272;2023-04-25T08:14:43;20.60;99.90
41168;DHT22;26906;45.658;9.272;2023-04-25T08:17:09;20.60;99.90
41168;DHT22;26906;45.658;9.272;2023-04-25T08:19:39;20.80;99.90
41168;DHT22;26906;45.658;9.272;2023-04-25T08:22:07;21.20;99.90
41168;DHT22;26906;45.658;9.272;2023-04-25T08:24:43;21.80;99.90
41168;DHT22;26906;45.658;9.272;2023-04-25T08:27:10;22.30;99.90
41168;DHT22;26906;45.658;9.272;2023-04-25T08:29:36;22.20;99.90
41168;DHT22;26906;45.658;9.272;2023-04-25T08:32:02;22.10;99.90
41168;DHT22;26906;45.658;9.272;2023-04-25T08:34:29;22.00;99.90
41168;DHT22;26906;45.658;9.272;2023-04-25T08:36:55;22.50;99.90
41168;DHT22;26906;45.658;9.272;2023-04-25T08:39:36;22.50;99.90
41168;DHT22;26906;45.658;9.272;2023-04-25T08:42:31;22.30;99.90
41168;DHT22;26906;45.658;9.272;2023-04-25T08:44:59;22.20;99.90
41168;DHT22;26906;45.658;9.272;2023-04-25T08:47:33;22.00;99.90
41168;DHT22;26906;45.658;9.272;2023-04-25T08:50:02;21.90;99.90
41168;DHT22;26906;45.658;9.272;2023-04-25T08:52:32;22.30;99.90
41168;DHT22;26906;45.658;9.272;2023-04-25T08:55:01;22.40;99.90
41168;DHT22;26906;45.658;9.272;2023-04-25T08:57:29;22.00;99.90
41168;DHT22;26906;45.658;9.272;2023-04-25T08:59:57;22.20;99.90
41168;DHT22;26906;45.658;9.272;2023-04-25T09:02:24;22.50;99.90
41168;DHT22;26906;45.658;9.272;2023-04-25T09:04:51;22.40;99.90
41168;DHT22;26906;45.658;9.272;2023-04-25T09:07:21;22.40;99.90
41168;DHT22;26906;45.658;9.272;2023-04-25T09:09:47;22.10;99.90
41168;DHT22;26906;45.658;9.272;2023-04-25T09:12:18;22.10;99.90
41168;DHT22;26906;45.658;9.272;2023-04-25T09:15:05;22.10;99.90
41168;DHT22;26906;45.658;9.272;2023-04-25T09:17:58;22.30;99.90
41168;DHT22;26906;45.658;9.272;2023-04-25T09:20:28;22.80;99.90
41168;DHT22;26906;45.658;9.272;2023-04-25T09:23:05;22.80;99.90
41168;DHT22;26906;45.658;9.272;2023-04-25T09:25:35;22.50;99.90
41168;DHT22;26906;45.658;9.272;2023-04-25T09:28:05;22.50;99.90
41168;DHT22;26906;45.658;9.272;2023-04-25T09:30:33;22.70;99.90
41168;DHT22;26906;45.658;9.272;2023-04-25T09:33:08;22.60;99.90
41168;DHT22;26906;45.658;9.272;2023-04-25T09:35:41;22.80;99.90
41168;DHT22;26906;45.658;9.272;2023-04-25T09:38:13;22.80;99.90
41168;DHT22;26906;45.658;9.272;2023-04-25T09:40:51;22.40;99.90
41168;DHT22;26906;45.658;9.272;2023-04-25T09:43:49;21.90;99.90
41168;DHT22;26906;45.658;9.272;2023-04-25T09:46:15;21.50;99.90
41168;DHT22;26906;45.658;9.272;2023-04-25T09:48:50;21.10;99.90
41168;DHT22;26906;45.658;9.272;2023-04-25T09:51:25;20.60;99.90
41168;DHT22;26906;45.658;9.272;2023-04-25T09:53:52;20.10;99.90
41168;DHT22;26906;45.658;9.272;2023-04-25T09:56:36;20.30;99.90
41168;DHT22;26906;45.658;9.272;2023-04-25T09:59:07;20.50;99.90
41168;DHT22;26906;45.658;9.272;2023-04-25T10:01:36;20.60;99.90
41168;DHT22;26906;45.658;9.272;2023-04-25T10:04:20;21.10;99.90
41168;DHT22;26906;45.658;9.272;2023-04-25T10:06:59;21.30;99.90
41168;DHT22;26906;45.658;9.272;2023-04-25T10:09:26;21.50;99.90
41168;DHT22;26906;45.658;9.272;2023-04-25T10:11:57;21.50;99.90
41168;DHT22;26906;45.658;9.272;2023-04-25T10:14:23;21.70;99.90
41168;DHT22;26906;45.658;9.272;2023-04-25T10:16:49;22.00;99.90
41168;DHT22;26906;45.658;9.272;2023-04-25T10:19:24;22.40;99.90
41168;DHT22;26906;45.658;9.272;2023-04-25T10:24:19;23.30;99.90
41168;DHT22;26906;45.658;9.272;2023-04-25T10:26:44;23.20;99.90
41168;DHT22;26906;45.658;9.272;2023-04-25T10:29:10;23.30;99.90
41168;DHT22;26906;45.658;9.272;2023-04-25T10:31:45;22.70;99.90
41168;DHT22;26906;45.658;9.272;2023-04-25T10:34:12;22.50;99.90
41168;DHT22;26906;45.658;9.272;2023-04-25T10:36:38;22.30;99.90
41168;DHT22;26906;45.658;9.272;2023-04-25T10:39:06;22.20;99.90
41168;DHT22;26906;45.658;9.272;2023-04-25T10:41:57;22.20;99.90
41168;DHT22;26906;45.658;9.272;2023-04-25T10:44:26;21.90;99.90
41168;DHT22;26906;45.658;9.272;2023-04-25T10:46:55;21.80;99.90
41168;DHT22;26906;45.658;9.272;2023-04-25T10:49:35;22.20;99.90
41168;DHT22;26906;45.658;9.272;2023-04-25T10:54:56;23.50;99.90
41168;DHT22;26906;45.658;9.272;2023-04-25T10:57:36;23.20;99.90
41168;DHT22;26906;45.658;9.272;2023-04-25T11:02:44;23.80;99.90
41168;DHT22;26906;45.658;9.272;2023-04-25T11:05:18;23.80;99.90
41168;DHT22;26906;45.658;9.272;2023-04-25T11:07:53;24.20;99.90
41168;DHT22;26906;45.658;9.272;2023-04-25T11:10:32;24.50;99.90
41168;DHT22;26906;45.658;9.272;2023-04-25T11:13:00;24.30;99.90
41168;DHT22;26906;45.658;9.272;2023-04-25T11:15:27;24.30;99.90
41168;DHT22;26906;45.658;9.272;2023-04-25T11:17:53;24.40;99.90
41168;DHT22;26906;45.658;9.272;2023-04-25T11:20:20;24.60;99.90
41168;DHT22;26906;45.658;9.272;2023-04-25T11:22:46;24.90;99.90
41168;DHT22;26906;45.658;9.272;2023-04-25T11:25:14;24.30;99.90
41168;DHT22;26906;45.658;9.272;2023-04-25T11:27:53;23.50;99.90
41168;DHT22;26906;45.658;9.272;2023-04-25T11:30:21;23.30;99.90
41168;DHT22;26906;45.658;9.272;2023-04-25T11:32:47;23.00;99.90
41168;DHT22;26906;45.658;9.272;2023-04-25T11:35:13;23.00;99.90
41168;DHT22;26906;45.658;9.272;2023-04-25T11:37:40;22.40;99.90
41168;DHT22;26906;45.658;9.272;2023-04-25T11:40:07;21.80;99.90
41168;DHT22;26906;45.658;9.272;2023-04-25T11:42:34;21.40;99.90
41168;DHT22;26906;45.658;9.272;2023-04-25T11:45:00;21.20;99.90
41168;DHT22;26906;45.658;9.272;2023-04-25T11:47:32;21.80;99.90
41168;DHT22;26906;45.658;9.272;2023-04-25T11:49:59;22.40;99.90
41168;DHT22;26906;45.658;9.272;2023-04-25T11:52:38;22.50;99.90
41168;DHT22;26906;45.658;9.272;2023-04-25T11:55:19;22.50;99.90
41168;DHT22;26906;45.658;9.272;2023-04-25T11:57:48;22.40;99.90
41168;DHT22;26906;45.658;9.272;2023-04-25T12:00:21;22.60;99.90
41168;DHT22;26906;45.658;9.272;2023-04-25T12:02:51;22.40;99.90
41168;DHT22;26906;45.658;9.272;2023-04-25T12:05:18;22.00;99.90
41168;DHT22;26906;45.658;9.272;2023-04-25T12:07:45;21.20;99.90
41168;DHT22;26906;45.658;9.272;2023-04-25T12:10:13;20.60;99.90
41168;DHT22;26906;45.658;9.272;2023-04-25T12:12:43;20.20;99.90
41168;DHT22;26906;45.658;9.272;2023-04-25T12:15:14;19.80;99.90
41168;DHT22;26906;45.658;9.272;2023-04-25T12:17:44;19.10;99.90
41168;DHT22;26906;45.658;9.272;2023-04-25T12:20:13;18.90;99.90
41168;DHT22;26906;45.658;9.272;2023-04-25T12:22:41;18.70;99.90
41168;DHT22;26906;45.658;9.272;2023-04-25T12:25:13;18.30;99.90
41168;DHT22;26906;45.658;9.272;2023-04-25T12:27:40;18.10;99.90
41168;DHT22;26906;45.658;9.272;2023-04-25T12:30:09;18.10;99.90
41168;DHT22;26906;45.658;9.272;2023-04-25T12:32:36;18.20;99.90
41168;DHT22;26906;45.658;9.272;2023-04-25T12:35:04;18.30;99.90
41168;DHT22;26906;45.658;9.272;2023-04-25T12:37:30;18.30;99.90
41168;DHT22;26906;45.658;9.272;2023-04-25T12:39:56;18.50;99.90
41168;DHT22;26906;45.658;9.272;2023-04-25T12:42:21;18.60;99.90
41168;DHT22;26906;45.658;9.272;2023-04-25T12:44:47;18.50;99.90
41168;DHT22;26906;45.658;9.272;2023-04-25T12:47:15;18.40;99.90
41168;DHT22;26906;45.658;9.272;2023-04-25T12:49:42;18.40;99.90
41168;DHT22;26906;45.658;9.272;2023-04-25T12:52:08;18.50;99.90
41168;DHT22;26906;45.658;9.272;2023-04-25T12:54:33;19.20;99.90
41168;DHT22;26906;45.658;9.272;2023-04-25T12:56:59;19.70;99.90
41168;DHT22;26906;45.658;9.272;2023-04-25T12:59:26;20.20;99.90
41168;DHT22;26906;45.658;9.272;2023-04-25T13:01:52;20.60;99.90
41168;DHT22;26906;45.658;9.272;2023-04-25T13:04:18;21.00;99.90
41168;DHT22;26906;45.658;9.272;2023-04-25T13:06:46;21.40;99.90
41168;DHT22;26906;45.658;9.272;2023-04-25T13:09:11;21.50;99.90
41168;DHT22;26906;45.658;9.272;2023-04-25T13:11:37;21.80;99.90
41168;DHT22;26906;45.658;9.272;2023-04-25T13:14:03;21.80;99.90
41168;DHT22;26906;45.658;9.272;2023-04-25T13:16:29;22.00;99.90
41168;DHT22;26906;45.658;9.272;2023-04-25T13:18:54;22.10;99.90
41168;DHT22;26906;45.658;9.272;2023-04-25T13:21:21;22.30;99.90
41168;DHT22;26906;45.658;9.272;2023-04-25T13:23:47;22.20;99.90
41168;DHT22;26906;45.658;9.272;2023-04-25T13:26:12;22.30;99.90
41168;DHT22;26906;45.658;9.272;2023-04-25T13:28:38;22.50;99.90
41168;DHT22;26906;45.658;9.272;2023-04-25T13:31:05;22.50;99.90
41168;DHT22;26906;45.658;9.272;2023-04-25T13:33:31;22.30;99.90
41168;DHT22;26906;45.658;9.272;2023-04-25T13:35:57;22.30;99.90
41168;DHT22;26906;45.658;9.272;2023-04-25T13:38:24;22.30;99.90
41168;DHT22;26906;45.658;9.272;2023-04-25T13:40:50;22.20;99.90
41168;DHT22;26906;45.658;9.272;2023-04-25T13:43:21;21.80;99.90
41168;DHT22;26906;45.658;9.272;2023-04-25T13:45:48;21.50;99.90
41168;DHT22;26906;45.658;9.272;2023-04-25T13:48:14;21.60;99.90
41168;DHT22;26906;45.658;9.272;2023-04-25T13:50:39;21.70;99.90
41168;DHT22;26906;45.658;9.272;2023-04-25T13:53:05;22.00;99.90
41168;DHT22;26906;45.658;9.272;2023-04-25T13:55:31;22.30;99.90
41168;DHT22;26906;45.658;9.272;2023-04-25T13:57:56;22.60;99.90
41168;DHT22;26906;45.658;9.272;2023-04-25T14:00:22;22.50;99.90
41168;DHT22;26906;45.658;9.272;2023-04-25T14:02:48;22.40;99.90
41168;DHT22;26906;45.658;9.272;2023-04-25T14:05:14;22.20;99.90
41168;DHT22;26906;45.658;9.272;2023-04-25T14:07:40;22.30;99.90
41168;DHT22;26906;45.658;9.272;2023-04-25T14:10:06;22.40;99.90
41168;DHT22;26906;45.658;9.272;2023-04-25T14:12:32;22.50;99.90
41168;DHT22;26906;45.658;9.272;2023-04-25T14:14:59;22.70;99.90
41168;DHT22;26906;45.658;9.272;2023-04-25T14:17:25;22.70;99.90
41168;DHT22;26906;45.658;9.272;2023-04-25T14:19:51;22.80;99.90
41168;DHT22;26906;45.658;9.272;2023-04-25T14:22:17;22.30;99.90
41168;DHT22;26906;45.658;9.272;2023-04-25T14:24:43;22.30;99.90
41168;DHT22;26906;45.658;9.272;2023-04-25T14:27:08;22.30;99.90
41168;DHT22;26906;45.658;9.272;2023-04-25T14:29:34;22.30;99.90
41168;DHT22;26906;45.658;9.272;2023-04-25T14:32:00;22.50;99.90
41168;DHT22;26906;45.658;9.272;2023-04-25T14:34:26;22.50;99.90
41168;DHT22;26906;45.658;9.272;2023-04-25T14:36:52;22.60;99.90
41168;DHT22;26906;45.658;9.272;2023-04-25T14:39:18;22.70;99.90
41168;DHT22;26906;45.658;9.272;2023-04-25T14:41:44;22.70;99.90
41168;DHT22;26906;45.658;9.272;2023-04-25T14:44:10;22.60;99.90
41168;DHT22;26906;45.658;9.272;2023-04-25T14:46:36;22.20;99.90
41168;DHT22;26906;45.658;9.272;2023-04-25T14:49:03;22.20;99.90
41168;DHT22;26906;45.658;9.272;2023-04-25T14:51:28;22.20;99.90
41168;DHT22;26906;45.658;9.272;2023-04-25T14:53:55;22.30;99.90
41168;DHT22;26906;45.658;9.272;2023-04-25T14:56:21;22.40;99.90
41168;DHT22;26906;45.658;9.272;2023-04-25T14:58:47;22.60;99.90
41168;DHT22;26906;45.658;9.272;2023-04-25T15:01:13;22.30;99.90
41168;DHT22;26906;45.658;9.272;2023-04-25T15:03:40;22.10;99.90
41168;DHT22;26906;45.658;9.272;2023-04-25T15:06:06;22.10;99.90
41168;DHT22;26906;45.658;9.272;2023-04-25T15:08:32;22.20;99.90
41168;DHT22;26906;45.658;9.272;2023-04-25T15:10:59;22.20;99.90
41168;DHT22;26906;45.658;9.272;2023-04-25T15:13:27;22.30;99.90
41168;DHT22;26906;45.658;9.272;2023-04-25T15:15:53;22.10;99.90
41168;DHT22;26906;45.658;9.272;2023-04-25T15:18:22;21.90;99.90
41168;DHT22;26906;45.658;9.272;2023-04-25T15:20:52;21.80;99.90
41168;DHT22;26906;45.658;9.272;2023-04-25T15:23:18;21.90;99.90
41168;DHT22;26906;45.658;9.272;2023-04-25T15:25:45;22.10;99.90
41168;DHT22;26906;45.658;9.272;2023-04-25T15:28:10;22.10;99.90
41168;DHT22;26906;45.658;9.272;2023-04-25T15:30:36;22.20;99.90
41168;DHT22;26906;45.658;9.272;2023-04-25T15:33:02;22.20;99.90
41168;DHT22;26906;45.658;9.272;2023-04-25T15:35:28;22.30;99.90
41168;DHT22;26906;45.658;9.272;2023-04-25T15:37:53;22.20;99.90
41168;DHT22;26906;45.658;9.272;2023-04-25T15:40:19;22.10;99.90
41168;DHT22;26906;45.658;9.272;2023-04-25T15:42:47;22.00;99.90
41168;DHT22;26906;45.658;9.272;2023-04-25T15:45:13;22.10;99.90
41168;DHT22;26906;45.658;9.272;2023-04-25T15:47:40;22.00;99.90
41168;DHT22;26906;45.658;9.272;2023-04-25T15:50:07;22.10;99.90
41168;DHT22;26906;45.658;9.272;2023-04-25T15:52:34;22.00;99.90
41168;DHT22;26906;45.658;9.272;2023-04-25T15:55:01;21.90;99.90
41168;DHT22;26906;45.658;9.272;2023-04-25T15:57:26;21.80;99.90
41168;DHT22;26906;45.658;9.272;2023-04-25T15:59:52;21.90;99.90
41168;DHT22;26906;45.658;9.272;2023-04-25T16:02:18;21.90;99.90
41168;DHT22;26906;45.658;9.272;2023-04-25T16:04:45;21.90;99.90
41168;DHT22;26906;45.658;9.272;2023-04-25T16:07:12;21.80;99.90
41168;DHT22;26906;45.658;9.272;2023-04-25T16:09:38;21.90;99.90
41168;DHT22;26906;45.658;9.272;2023-04-25T16:12:05;21.70;99.90
41168;DHT22;26906;45.658;9.272;2023-04-25T16:14:32;21.80;99.90
41168;DHT22;26906;45.658;9.272;2023-04-25T16:16:57;21.70;99.90
41168;DHT22;26906;45.658;9.272;2023-04-25T16:19:23;21.80;99.90
41168;DHT22;26906;45.658;9.272;2023-04-25T16:21:49;21.80;99.90
41168;DHT22;26906;45.658;9.272;2023-04-25T16:24:16;21.90;99.90
41168;DHT22;26906;45.658;9.272;2023-04-25T16:26:42;21.80;99.90
41168;DHT22;26906;45.658;9.272;2023-04-25T16:29:08;21.80;99.90
41168;DHT22;26906;45.658;9.272;2023-04-25T16:31:34;21.60;99.90
41168;DHT22;26906;45.658;9.272;2023-04-25T16:34:03;21.40;99.90
41168;DHT22;26906;45.658;9.272;2023-04-25T16:36:29;20.80;99.90
41168;DHT22;26906;45.658;9.272;2023-04-25T16:38:57;20.60;99.90
41168;DHT22;26906;45.658;9.272;2023-04-25T16:41:23;20.70;99.90
41168;DHT22;26906;45.658;9.272;2023-04-25T16:43:49;20.60;99.90
41168;DHT22;26906;45.658;9.272;2023-04-25T16:46:15;20.70;99.90
41168;DHT22;26906;45.658;9.272;2023-04-25T16:48:44;20.70;99.90
41168;DHT22;26906;45.658;9.272;2023-04-25T16:51:10;20.70;99.90
41168;DHT22;26906;45.658;9.272;2023-04-25T16:53:37;20.70;99.90
41168;DHT22;26906;45.658;9.272;2023-04-25T16:56:03;20.70;99.90
41168;DHT22;26906;45.658;9.272;2023-04-25T16:58:29;20.40;99.90
41168;DHT22;26906;45.658;9.272;2023-04-25T17:00:55;20.50;99.90
41168;DHT22;26906;45.658;9.272;2023-04-25T17:03:22;20.30;99.90
41168;DHT22;26906;45.658;9.272;2023-04-25T17:05:49;20.10;99.90
41168;DHT22;26906;45.658;9.272;2023-04-25T17:08:15;20.10;99.90
41168;DHT22;26906;45.658;9.272;2023-04-25T17:10:42;20.10;99.90
41168;DHT22;26906;45.658;9.272;2023-04-25T17:13:07;20.10;99.90
41168;DHT22;26906;45.658;9.272;2023-04-25T17:15:33;20.00;99.90
41168;DHT22;26906;45.658;9.272;2023-04-25T17:17:59;20.00;99.90
41168;DHT22;26906;45.658;9.272;2023-04-25T17:20:25;20.00;99.90
41168;DHT22;26906;45.658;9.272;2023-04-25T17:22:52;19.80;99.90
41168;DHT22;26906;45.658;9.272;2023-04-25T17:25:18;19.60;99.90
41168;DHT22;26906;45.658;9.272;2023-04-25T17:27:44;19.50;99.90
41168;DHT22;26906;45.658;9.272;2023-04-25T17:30:10;19.40;99.90
41168;DHT22;26906;45.658;9.272;2023-04-25T17:32:37;19.40;99.90
41168;DHT22;26906;45.658;9.272;2023-04-25T17:35:04;19.30;99.90
41168;DHT22;26906;45.658;9.272;2023-04-25T17:37:29;19.20;99.90
41168;DHT22;26906;45.658;9.272;2023-04-25T17:39:56;19.00;99.90
41168;DHT22;26906;45.658;9.272;2023-04-25T17:42:22;18.80;99.90
41168;DHT22;26906;45.658;9.272;2023-04-25T17:44:48;18.50;99.90
41168;DHT22;26906;45.658;9.272;2023-04-25T17:47:14;18.30;99.90
41168;DHT22;26906;45.658;9.272;2023-04-25T17:49:41;18.30;99.90
41168;DHT22;26906;45.658;9.272;2023-04-25T17:52:07;18.10;99.90
41168;DHT22;26906;45.658;9.272;2023-04-25T17:54:33;18.00;99.90
41168;DHT22;26906;45.658;9.272;2023-04-25T17:56:59;17.90;99.90
41168;DHT22;26906;45.658;9.272;2023-04-25T17:59:25;17.70;99.90
41168;DHT22;26906;45.658;9.272;2023-04-25T18:01:52;17.60;99.90
41168;DHT22;26906;45.658;9.272;2023-04-25T18:04:18;17.50;99.90
41168;DHT22;26906;45.658;9.272;2023-04-25T18:06:45;17.40;99.90
41168;DHT22;26906;45.658;9.272;2023-04-25T18:09:11;17.30;99.90
41168;DHT22;26906;45.658;9.272;2023-04-25T18:11:47;17.20;99.90
41168;DHT22;26906;45.658;9.272;2023-04-25T18:14:15;17.10;99.90
41168;DHT22;26906;45.658;9.272;2023-04-25T18:16:50;17.10;99.90
41168;DHT22;26906;45.658;9.272;2023-04-25T18:19:18;17.00;99.90
41168;DHT22;26906;45.658;9.272;2023-04-25T18:24:14;16.80;99.90
41168;DHT22;26906;45.658;9.272;2023-04-25T18:26:44;16.90;99.90
41168;DHT22;26906;45.658;9.272;2023-04-25T18:29:11;16.70;99.90
41168;DHT22;26906;45.658;9.272;2023-04-25T18:31:38;16.70;99.90
41168;DHT22;26906;45.658;9.272;2023-04-25T18:34:04;16.60;99.90
41168;DHT22;26906;45.658;9.272;2023-04-25T18:36:30;16.50;99.90
41168;DHT22;26906;45.658;9.272;2023-04-25T18:38:55;16.50;99.90
41168;DHT22;26906;45.658;9.272;2023-04-25T18:41:24;16.30;99.90
41168;DHT22;26906;45.658;9.272;2023-04-25T18:43:50;16.40;99.90
41168;DHT22;26906;45.658;9.272;2023-04-25T18:46:16;16.40;99.90
41168;DHT22;26906;45.658;9.272;2023-04-25T18:48:50;16.40;99.90
41168;DHT22;26906;45.658;9.272;2023-04-25T18:51:16;16.40;99.90
41168;DHT22;26906;45.658;9.272;2023-04-25T18:53:42;16.20;99.90
41168;DHT22;26906;45.658;9.272;2023-04-25T18:56:08;16.20;99.90
41168;DHT22;26906;45.658;9.272;2023-04-25T18:58:33;16.20;99.90
41168;DHT22;26906;45.658;9.272;2023-04-25T19:00:59;16.30;99.90
41168;DHT22;26906;45.658;9.272;2023-04-25T19:03:26;16.10;99.90
41168;DHT22;26906;45.658;9.272;2023-04-25T19:05:52;16.10;99.90
41168;DHT22;26906;45.658;9.272;2023-04-25T19:08:19;16.10;99.90
41168;DHT22;26906;45.658;9.272;2023-04-25T19:10:44;16.10;99.90
41168;DHT22;26906;45.658;9.272;2023-04-25T19:13:12;16.00;99.90
41168;DHT22;26906;45.658;9.272;2023-04-25T19:15:39;16.00;99.90
41168;DHT22;26906;45.658;9.272;2023-04-25T19:18:05;15.90;99.90
41168;DHT22;26906;45.658;9.272;2023-04-25T19:20:32;15.80;99.90
41168;DHT22;26906;45.658;9.272;2023-04-25T19:22:58;15.80;99.90
41168;DHT22;26906;45.658;9.272;2023-04-25T19:25:24;15.80;99.90
41168;DHT22;26906;45.658;9.272;2023-04-25T19:27:50;15.90;99.90
41168;DHT22;26906;45.658;9.272;2023-04-25T19:30:16;16.00;99.90
41168;DHT22;26906;45.658;9.272;2023-04-25T19:32:42;16.00;99.90
41168;DHT22;26906;45.658;9.272;2023-04-25T19:35:10;16.00;99.90
41168;DHT22;26906;45.658;9.272;2023-04-25T19:37:39;16.00;99.90
41168;DHT22;26906;45.658;9.272;2023-04-25T19:40:12;16.00;99.90
41168;DHT22;26906;45.658;9.272;2023-04-25T19:42:38;15.60;99.90
41168;DHT22;26906;45.658;9.272;2023-04-25T19:45:04;15.40;99.90
41168;DHT22;26906;45.658;9.272;2023-04-25T19:47:30;15.30;99.90
41168;DHT22;26906;45.658;9.272;2023-04-25T19:49:56;15.20;99.90
41168;DHT22;26906;45.658;9.272;2023-04-25T19:52:21;15.00;99.90
41168;DHT22;26906;45.658;9.272;2023-04-25T19:54:47;15.00;99.90
41168;DHT22;26906;45.658;9.272;2023-04-25T19:57:13;14.80;99.90
41168;DHT22;26906;45.658;9.272;2023-04-25T19:59:39;14.80;99.90
41168;DHT22;26906;45.658;9.272;2023-04-25T20:02:05;14.80;99.90
41168;DHT22;26906;45.658;9.272;2023-04-25T20:04:33;14.90;99.90
41168;DHT22;26906;45.658;9.272;2023-04-25T20:06:59;15.20;99.90
41168;DHT22;26906;45.658;9.272;2023-04-25T20:09:25;15.30;99.90
41168;DHT22;26906;45.658;9.272;2023-04-25T20:11:51;15.40;99.90
41168;DHT22;26906;45.658;9.272;2023-04-25T20:14:17;15.40;99.90
41168;DHT22;26906;45.658;9.272;2023-04-25T20:16:43;15.20;99.90
41168;DHT22;26906;45.658;9.272;2023-04-25T20:19:10;15.10;99.90
41168;DHT22;26906;45.658;9.272;2023-04-25T20:21:35;15.10;99.90
41168;DHT22;26906;45.658;9.272;2023-04-25T20:24:02;14.90;99.90
41168;DHT22;26906;45.658;9.272;2023-04-25T20:26:28;14.80;99.90
41168;DHT22;26906;45.658;9.272;2023-04-25T20:28:58;14.60;99.90
